Terminal Aerodrome Forecast
Issued by NWS Sioux Falls, SD

Home | Current Version | Previous Version | Text Only | Print | Product List | Glossary On
Versions: 1 2 3 4 5 6 7 8 9 10 11 12 13 14 15 16 17 18 19 20 21 22 23 24 25
000
FTUS43 KFSD 031742
TAFSUX
TAF
KSUX 031742Z 0318/0418 14008KT P6SM SCT250
     FM032100 VRB05KT P6SM BKN120
     FM032300 01011KT P6SM SCT060
     FM040000 01016G23KT P6SM VCTS BKN050CB
     FM040300 02012G18KT P6SM SCT120
     FM040800 02010KT P6SM SCT200
     FM041400 05014G20KT P6SM BKN120=

USA.gov is the U.S. government's official web portal to all federal, state and local government web resources and services.